Terminal Aerodrome Forecast
Issued by NWS Charleston, WV

Current Version | Previous Version | Text Only | Print | Product List | Glossary Off
Versions: 1 2 3 4 5 6 7 8 9 10 11 12 13 14 15 16 17 18 19 20 21

000
FTUS41 KRLX 271741
TAFHTS
TAF
KHTS 271741Z 2718/2818 21011G18KT 5SM -SHRA BKN022
     FM271900 25012G17KT P6SM VCTS BKN025CB
     FM272100 26012G19KT P6SM SCT025
     FM280000 27012G19KT P6SM BKN035
     FM280300 26009KT P6SM SCT040
     FM280900 26010KT P6SM SCT020=

USA.gov is the U.S. government's official web portal to all federal, state and local government web resources and services.